sensor_id;sensor_type;location;lat;lon;timestamp;P1;durP1;ratioP1;P2;durP2;ratioP2
4389;SDS011;2209;48.982;8.406;2023-08-21T00:01:25;7.37;;;6.60;;
4389;SDS011;2209;48.982;8.406;2023-08-21T00:03:47;6.90;;;6.40;;
4389;SDS011;2209;48.982;8.406;2023-08-21T00:06:10;8.37;;;7.60;;
4389;SDS011;2209;48.982;8.406;2023-08-21T00:08:32;8.93;;;7.50;;
4389;SDS011;2209;48.982;8.406;2023-08-21T00:10:55;10.70;;;7.23;;
4389;SDS011;2209;48.982;8.406;2023-08-21T00:13:18;11.33;;;7.30;;
4389;SDS011;2209;48.982;8.406;2023-08-21T00:15:40;6.90;;;6.30;;
4389;SDS011;2209;48.982;8.406;2023-08-21T00:18:02;7.30;;;6.37;;
4389;SDS011;2209;48.982;8.406;2023-08-21T00:20:25;7.63;;;6.80;;
4389;SDS011;2209;48.982;8.406;2023-08-21T00:22:47;10.93;;;7.63;;
4389;SDS011;2209;48.982;8.406;2023-08-21T00:25:09;8.30;;;7.40;;
4389;SDS011;2209;48.982;8.406;2023-08-21T00:27:31;9.73;;;7.17;;
4389;SDS011;2209;48.982;8.406;2023-08-21T00:29:55;15.80;;;7.90;;
4389;SDS011;2209;48.982;8.406;2023-08-21T00:32:17;7.77;;;7.07;;
4389;SDS011;2209;48.982;8.406;2023-08-21T00:34:39;8.30;;;7.50;;
4389;SDS011;2209;48.982;8.406;2023-08-21T00:37:01;9.60;;;7.00;;
4389;SDS011;2209;48.982;8.406;2023-08-21T00:39:23;8.83;;;7.97;;
4389;SDS011;2209;48.982;8.406;2023-08-21T00:41:45;8.33;;;7.40;;
4389;SDS011;2209;48.982;8.406;2023-08-21T00:44:07;8.30;;;7.47;;
4389;SDS011;2209;48.982;8.406;2023-08-21T00:46:31;21.47;;;8.13;;
4389;SDS011;2209;48.982;8.406;2023-08-21T00:48:53;8.97;;;7.57;;
4389;SDS011;2209;48.982;8.406;2023-08-21T00:51:15;9.97;;;8.03;;
4389;SDS011;2209;48.982;8.406;2023-08-21T00:53:38;8.67;;;7.90;;
4389;SDS011;2209;48.982;8.406;2023-08-21T00:56:00;11.10;;;8.00;;
4389;SDS011;2209;48.982;8.406;2023-08-21T00:58:23;9.30;;;7.50;;
4389;SDS011;2209;48.982;8.406;2023-08-21T01:00:45;7.70;;;6.90;;
4389;SDS011;2209;48.982;8.406;2023-08-21T01:03:11;8.50;;;6.90;;
4389;SDS011;2209;48.982;8.406;2023-08-21T01:05:34;9.73;;;8.83;;
4389;SDS011;2209;48.982;8.406;2023-08-21T01:07:57;9.70;;;8.67;;
4389;SDS011;2209;48.982;8.406;2023-08-21T01:10:25;8.37;;;7.67;;
4389;SDS011;2209;48.982;8.406;2023-08-21T01:12:56;7.57;;;6.80;;
4389;SDS011;2209;48.982;8.406;2023-08-21T01:15:23;8.53;;;7.63;;
4389;SDS011;2209;48.982;8.406;2023-08-21T01:17:46;9.87;;;7.70;;
4389;SDS011;2209;48.982;8.406;2023-08-21T01:20:11;12.90;;;7.27;;
4389;SDS011;2209;48.982;8.406;2023-08-21T01:22:35;9.50;;;6.70;;
4389;SDS011;2209;48.982;8.406;2023-08-21T01:24:59;14.10;;;8.73;;
4389;SDS011;2209;48.982;8.406;2023-08-21T01:27:21;8.07;;;7.37;;
4389;SDS011;2209;48.982;8.406;2023-08-21T01:29:43;8.60;;;7.70;;
4389;SDS011;2209;48.982;8.406;2023-08-21T01:32:06;7.67;;;7.07;;
4389;SDS011;2209;48.982;8.406;2023-08-21T01:34:32;8.77;;;7.80;;
4389;SDS011;2209;48.982;8.406;2023-08-21T01:36:55;8.77;;;8.00;;
4389;SDS011;2209;48.982;8.406;2023-08-21T01:39:18;9.37;;;7.50;;
4389;SDS011;2209;48.982;8.406;2023-08-21T01:41:42;9.43;;;8.37;;
4389;SDS011;2209;48.982;8.406;2023-08-21T01:44:04;7.57;;;6.93;;
4389;SDS011;2209;48.982;8.406;2023-08-21T01:46:26;10.07;;;7.30;;
4389;SDS011;2209;48.982;8.406;2023-08-21T01:48:48;7.83;;;7.23;;
4389;SDS011;2209;48.982;8.406;2023-08-21T01:51:10;7.27;;;6.77;;
4389;SDS011;2209;48.982;8.406;2023-08-21T01:53:32;9.67;;;7.77;;
4389;SDS011;2209;48.982;8.406;2023-08-21T01:55:55;8.67;;;7.80;;
4389;SDS011;2209;48.982;8.406;2023-08-21T01:58:18;8.90;;;8.00;;
4389;SDS011;2209;48.982;8.406;2023-08-21T02:00:40;7.90;;;7.20;;
4389;SDS011;2209;48.982;8.406;2023-08-21T02:03:02;8.17;;;7.47;;
4389;SDS011;2209;48.982;8.406;2023-08-21T02:05:24;7.67;;;7.07;;
4389;SDS011;2209;48.982;8.406;2023-08-21T02:07:46;10.20;;;7.07;;
4389;SDS011;2209;48.982;8.406;2023-08-21T02:10:09;8.10;;;7.30;;
4389;SDS011;2209;48.982;8.406;2023-08-21T02:12:32;8.33;;;7.43;;
4389;SDS011;2209;48.982;8.406;2023-08-21T02:14:55;9.63;;;8.10;;
4389;SDS011;2209;48.982;8.406;2023-08-21T02:17:17;7.30;;;6.60;;
4389;SDS011;2209;48.982;8.406;2023-08-21T02:19:39;8.10;;;6.93;;
4389;SDS011;2209;48.982;8.406;2023-08-21T02:22:02;8.43;;;7.20;;
4389;SDS011;2209;48.982;8.406;2023-08-21T02:24:24;8.10;;;7.40;;
4389;SDS011;2209;48.982;8.406;2023-08-21T02:26:46;7.73;;;7.03;;
4389;SDS011;2209;48.982;8.406;2023-08-21T02:29:08;7.70;;;6.97;;
4389;SDS011;2209;48.982;8.406;2023-08-21T02:31:31;10.00;;;8.47;;
4389;SDS011;2209;48.982;8.406;2023-08-21T02:33:53;7.73;;;6.93;;
4389;SDS011;2209;48.982;8.406;2023-08-21T02:36:15;8.23;;;7.10;;
4389;SDS011;2209;48.982;8.406;2023-08-21T02:38:37;8.23;;;7.40;;
4389;SDS011;2209;48.982;8.406;2023-08-21T02:40:59;10.63;;;6.73;;
4389;SDS011;2209;48.982;8.406;2023-08-21T02:43:21;7.30;;;6.80;;
4389;SDS011;2209;48.982;8.406;2023-08-21T02:45:43;8.83;;;7.53;;
4389;SDS011;2209;48.982;8.406;2023-08-21T02:48:07;8.00;;;7.30;;
4389;SDS011;2209;48.982;8.406;2023-08-21T02:50:29;6.87;;;6.27;;
4389;SDS011;2209;48.982;8.406;2023-08-21T02:52:51;8.47;;;7.40;;
4389;SDS011;2209;48.982;8.406;2023-08-21T02:55:13;7.30;;;6.60;;
4389;SDS011;2209;48.982;8.406;2023-08-21T02:57:36;8.00;;;7.20;;
4389;SDS011;2209;48.982;8.406;2023-08-21T02:59:58;8.77;;;7.80;;
4389;SDS011;2209;48.982;8.406;2023-08-21T03:02:20;7.87;;;7.10;;
4389;SDS011;2209;48.982;8.406;2023-08-21T03:04:43;7.97;;;7.00;;
4389;SDS011;2209;48.982;8.406;2023-08-21T03:07:05;7.50;;;6.47;;
4389;SDS011;2209;48.982;8.406;2023-08-21T03:09:28;7.90;;;7.20;;
4389;SDS011;2209;48.982;8.406;2023-08-21T03:11:50;7.10;;;6.40;;
4389;SDS011;2209;48.982;8.406;2023-08-21T03:14:12;13.77;;;7.90;;
4389;SDS011;2209;48.982;8.406;2023-08-21T03:16:34;11.50;;;7.47;;
4389;SDS011;2209;48.982;8.406;2023-08-21T03:18:56;7.77;;;7.07;;
4389;SDS011;2209;48.982;8.406;2023-08-21T03:21:21;7.77;;;7.07;;
4389;SDS011;2209;48.982;8.406;2023-08-21T03:23:44;8.40;;;7.70;;
4389;SDS011;2209;48.982;8.406;2023-08-21T03:26:06;7.60;;;7.00;;
4389;SDS011;2209;48.982;8.406;2023-08-21T03:28:28;7.73;;;7.17;;
4389;SDS011;2209;48.982;8.406;2023-08-21T03:30:50;8.23;;;7.53;;
4389;SDS011;2209;48.982;8.406;2023-08-21T03:33:14;6.77;;;6.17;;
4389;SDS011;2209;48.982;8.406;2023-08-21T03:35:36;7.63;;;7.00;;
4389;SDS011;2209;48.982;8.406;2023-08-21T03:37:59;7.97;;;7.20;;
4389;SDS011;2209;48.982;8.406;2023-08-21T03:40:21;7.80;;;7.10;;
4389;SDS011;2209;48.982;8.406;2023-08-21T03:42:43;7.87;;;7.07;;
4389;SDS011;2209;48.982;8.406;2023-08-21T03:45:06;7.50;;;6.90;;
4389;SDS011;2209;48.982;8.406;2023-08-21T03:47:29;7.60;;;6.80;;
4389;SDS011;2209;48.982;8.406;2023-08-21T03:49:51;11.40;;;7.23;;
4389;SDS011;2209;48.982;8.406;2023-08-21T03:52:13;7.43;;;6.73;;
4389;SDS011;2209;48.982;8.406;2023-08-21T03:54:36;8.83;;;6.67;;
4389;SDS011;2209;48.982;8.406;2023-08-21T03:56:58;7.80;;;6.93;;
4389;SDS011;2209;48.982;8.406;2023-08-21T03:59:20;7.10;;;6.50;;
4389;SDS011;2209;48.982;8.406;2023-08-21T04:01:44;10.93;;;6.20;;
4389;SDS011;2209;48.982;8.406;2023-08-21T04:04:06;8.60;;;6.60;;
4389;SDS011;2209;48.982;8.406;2023-08-21T04:06:28;8.47;;;7.73;;
4389;SDS011;2209;48.982;8.406;2023-08-21T04:08:50;8.70;;;7.90;;
4389;SDS011;2209;48.982;8.406;2023-08-21T04:11:13;9.40;;;6.23;;
4389;SDS011;2209;48.982;8.406;2023-08-21T04:13:36;6.63;;;6.13;;
4389;SDS011;2209;48.982;8.406;2023-08-21T04:15:58;8.13;;;7.43;;
4389;SDS011;2209;48.982;8.406;2023-08-21T04:18:20;8.67;;;7.87;;
4389;SDS011;2209;48.982;8.406;2023-08-21T04:20:42;8.50;;;7.57;;
4389;SDS011;2209;48.982;8.406;2023-08-21T04:23:04;9.03;;;6.73;;
4389;SDS011;2209;48.982;8.406;2023-08-21T04:25:26;7.40;;;6.80;;
4389;SDS011;2209;48.982;8.406;2023-08-21T04:27:50;6.80;;;6.30;;
4389;SDS011;2209;48.982;8.406;2023-08-21T04:30:12;6.63;;;6.13;;
4389;SDS011;2209;48.982;8.406;2023-08-21T04:32:34;11.60;;;7.80;;
4389;SDS011;2209;48.982;8.406;2023-08-21T04:34:56;11.40;;;7.00;;
4389;SDS011;2209;48.982;8.406;2023-08-21T04:37:19;9.60;;;8.03;;
4389;SDS011;2209;48.982;8.406;2023-08-21T04:39:41;9.30;;;7.17;;
4389;SDS011;2209;48.982;8.406;2023-08-21T04:42:03;9.57;;;7.47;;
4389;SDS011;2209;48.982;8.406;2023-08-21T04:44:27;11.27;;;7.63;;
4389;SDS011;2209;48.982;8.406;2023-08-21T04:46:49;8.90;;;8.00;;
4389;SDS011;2209;48.982;8.406;2023-08-21T04:49:11;8.40;;;7.57;;
4389;SDS011;2209;48.982;8.406;2023-08-21T04:51:33;8.77;;;7.87;;
4389;SDS011;2209;48.982;8.406;2023-08-21T04:53:56;8.33;;;7.50;;
4389;SDS011;2209;48.982;8.406;2023-08-21T04:56:19;10.30;;;7.70;;
4389;SDS011;2209;48.982;8.406;2023-08-21T04:58:41;9.43;;;8.27;;
4389;SDS011;2209;48.982;8.406;2023-08-21T05:01:05;8.10;;;7.40;;
4389;SDS011;2209;48.982;8.406;2023-08-21T05:03:27;7.43;;;6.90;;
4389;SDS011;2209;48.982;8.406;2023-08-21T05:05:52;9.57;;;6.90;;
4389;SDS011;2209;48.982;8.406;2023-08-21T05:08:15;12.53;;;7.77;;
4389;SDS011;2209;48.982;8.406;2023-08-21T05:10:37;8.40;;;7.00;;
4389;SDS011;2209;48.982;8.406;2023-08-21T05:12:59;7.13;;;6.53;;
4389;SDS011;2209;48.982;8.406;2023-08-21T05:15:21;8.47;;;7.70;;
4389;SDS011;2209;48.982;8.406;2023-08-21T05:17:44;8.60;;;7.80;;
4389;SDS011;2209;48.982;8.406;2023-08-21T05:20:06;8.07;;;7.10;;
4389;SDS011;2209;48.982;8.406;2023-08-21T05:22:30;7.63;;;6.80;;
4389;SDS011;2209;48.982;8.406;2023-08-21T05:24:52;8.10;;;7.47;;
4389;SDS011;2209;48.982;8.406;2023-08-21T05:27:14;9.07;;;7.50;;
4389;SDS011;2209;48.982;8.406;2023-08-21T05:29:36;8.73;;;7.10;;
4389;SDS011;2209;48.982;8.406;2023-08-21T05:31:58;12.17;;;6.93;;
4389;SDS011;2209;48.982;8.406;2023-08-21T05:34:22;9.57;;;7.30;;
4389;SDS011;2209;48.982;8.406;2023-08-21T05:36:45;8.90;;;6.97;;
4389;SDS011;2209;48.982;8.406;2023-08-21T05:39:07;7.40;;;6.80;;
4389;SDS011;2209;48.982;8.406;2023-08-21T05:41:30;7.40;;;6.73;;
4389;SDS011;2209;48.982;8.406;2023-08-21T05:43:52;6.20;;;5.70;;
4389;SDS011;2209;48.982;8.406;2023-08-21T05:46:14;9.80;;;6.87;;
4389;SDS011;2209;48.982;8.406;2023-08-21T05:48:36;7.67;;;6.87;;
4389;SDS011;2209;48.982;8.406;2023-08-21T05:50:59;9.53;;;8.20;;
4389;SDS011;2209;48.982;8.406;2023-08-21T05:53:21;8.67;;;7.87;;
4389;SDS011;2209;48.982;8.406;2023-08-21T05:55:43;11.93;;;7.80;;
4389;SDS011;2209;48.982;8.406;2023-08-21T05:58:05;10.87;;;8.23;;
4389;SDS011;2209;48.982;8.406;2023-08-21T06:00:28;9.20;;;7.70;;
4389;SDS011;2209;48.982;8.406;2023-08-21T06:02:50;9.00;;;7.60;;
4389;SDS011;2209;48.982;8.406;2023-08-21T06:05:12;10.97;;;7.83;;
4389;SDS011;2209;48.982;8.406;2023-08-21T06:07:35;8.63;;;7.83;;
4389;SDS011;2209;48.982;8.406;2023-08-21T06:09:57;9.70;;;7.77;;
4389;SDS011;2209;48.982;8.406;2023-08-21T06:12:19;9.30;;;7.00;;
4389;SDS011;2209;48.982;8.406;2023-08-21T06:14:41;10.20;;;8.80;;
4389;SDS011;2209;48.982;8.406;2023-08-21T06:17:04;9.93;;;7.60;;
4389;SDS011;2209;48.982;8.406;2023-08-21T06:19:26;8.40;;;7.50;;
4389;SDS011;2209;48.982;8.406;2023-08-21T06:21:49;8.67;;;7.87;;
4389;SDS011;2209;48.982;8.406;2023-08-21T06:24:11;10.40;;;8.00;;
4389;SDS011;2209;48.982;8.406;2023-08-21T06:26:33;9.07;;;8.20;;
4389;SDS011;2209;48.982;8.406;2023-08-21T06:28:55;8.43;;;7.70;;
4389;SDS011;2209;48.982;8.406;2023-08-21T06:31:17;11.43;;;8.23;;
4389;SDS011;2209;48.982;8.406;2023-08-21T06:33:39;9.93;;;7.53;;
4389;SDS011;2209;48.982;8.406;2023-08-21T06:36:01;9.00;;;8.20;;
4389;SDS011;2209;48.982;8.406;2023-08-21T06:38:23;7.93;;;7.23;;
4389;SDS011;2209;48.982;8.406;2023-08-21T06:40:47;7.93;;;7.10;;
4389;SDS011;2209;48.982;8.406;2023-08-21T06:43:09;7.70;;;6.90;;
4389;SDS011;2209;48.982;8.406;2023-08-21T06:45:31;9.43;;;8.47;;
4389;SDS011;2209;48.982;8.406;2023-08-21T06:47:53;8.97;;;8.17;;
4389;SDS011;2209;48.982;8.406;2023-08-21T06:50:15;16.00;;;8.43;;
4389;SDS011;2209;48.982;8.406;2023-08-21T06:52:37;8.43;;;7.73;;
4389;SDS011;2209;48.982;8.406;2023-08-21T06:54:59;8.67;;;7.97;;
4389;SDS011;2209;48.982;8.406;2023-08-21T06:57:23;10.20;;;8.90;;
4389;SDS011;2209;48.982;8.406;2023-08-21T06:59:45;11.43;;;10.10;;
4389;SDS011;2209;48.982;8.406;2023-08-21T07:02:07;9.60;;;8.53;;
4389;SDS011;2209;48.982;8.406;2023-08-21T07:04:29;10.33;;;9.30;;
4389;SDS011;2209;48.982;8.406;2023-08-21T07:06:53;11.30;;;8.30;;
4389;SDS011;2209;48.982;8.406;2023-08-21T07:09:15;9.20;;;8.30;;
4389;SDS011;2209;48.982;8.406;2023-08-21T07:11:37;12.13;;;7.87;;
4389;SDS011;2209;48.982;8.406;2023-08-21T07:14:00;9.90;;;8.50;;
4389;SDS011;2209;48.982;8.406;2023-08-21T07:16:23;10.97;;;8.77;;
4389;SDS011;2209;48.982;8.406;2023-08-21T07:18:46;9.17;;;8.27;;
4389;SDS011;2209;48.982;8.406;2023-08-21T07:21:08;12.60;;;9.93;;
4389;SDS011;2209;48.982;8.406;2023-08-21T07:23:30;13.97;;;11.10;;
4389;SDS011;2209;48.982;8.406;2023-08-21T07:25:53;11.80;;;8.90;;
4389;SDS011;2209;48.982;8.406;2023-08-21T07:28:15;12.07;;;10.00;;
4389;SDS011;2209;48.982;8.406;2023-08-21T07:30:38;10.50;;;9.20;;
4389;SDS011;2209;48.982;8.406;2023-08-21T07:33:01;11.03;;;9.53;;
4389;SDS011;2209;48.982;8.406;2023-08-21T07:35:23;11.17;;;10.10;;
4389;SDS011;2209;48.982;8.406;2023-08-21T07:37:45;9.93;;;9.03;;
4389;SDS011;2209;48.982;8.406;2023-08-21T07:40:07;10.10;;;8.93;;
4389;SDS011;2209;48.982;8.406;2023-08-21T07:42:29;13.53;;;10.10;;
4389;SDS011;2209;48.982;8.406;2023-08-21T07:44:51;18.17;;;9.23;;
4389;SDS011;2209;48.982;8.406;2023-08-21T07:47:15;10.10;;;8.90;;
4389;SDS011;2209;48.982;8.406;2023-08-21T07:49:37;12.73;;;9.13;;
4389;SDS011;2209;48.982;8.406;2023-08-21T07:51:59;9.73;;;8.73;;
4389;SDS011;2209;48.982;8.406;2023-08-21T07:54:21;10.03;;;9.03;;
4389;SDS011;2209;48.982;8.406;2023-08-21T07:56:44;8.77;;;8.03;;
4389;SDS011;2209;48.982;8.406;2023-08-21T07:59:06;10.90;;;8.07;;
4389;SDS011;2209;48.982;8.406;2023-08-21T08:01:28;9.40;;;8.57;;
4389;SDS011;2209;48.982;8.406;2023-08-21T08:03:51;11.50;;;9.17;;
4389;SDS011;2209;48.982;8.406;2023-08-21T08:06:13;10.10;;;8.80;;
4389;SDS011;2209;48.982;8.406;2023-08-21T08:08:35;8.67;;;7.87;;
4389;SDS011;2209;48.982;8.406;2023-08-21T08:11:00;11.00;;;9.33;;
4389;SDS011;2209;48.982;8.406;2023-08-21T08:13:23;11.33;;;9.07;;
4389;SDS011;2209;48.982;8.406;2023-08-21T08:15:45;12.37;;;9.27;;
4389;SDS011;2209;48.982;8.406;2023-08-21T08:18:10;13.40;;;8.83;;
4389;SDS011;2209;48.982;8.406;2023-08-21T08:20:34;11.60;;;9.77;;
4389;SDS011;2209;48.982;8.406;2023-08-21T08:22:56;10.90;;;9.77;;
4389;SDS011;2209;48.982;8.406;2023-08-21T08:25:18;9.97;;;8.93;;
4389;SDS011;2209;48.982;8.406;2023-08-21T08:27:41;9.30;;;8.40;;
4389;SDS011;2209;48.982;8.406;2023-08-21T08:30:03;12.87;;;9.00;;
4389;SDS011;2209;48.982;8.406;2023-08-21T08:32:26;10.87;;;9.73;;
4389;SDS011;2209;48.982;8.406;2023-08-21T08:34:48;13.80;;;9.37;;
4389;SDS011;2209;48.982;8.406;2023-08-21T08:37:11;12.23;;;9.33;;
4389;SDS011;2209;48.982;8.406;2023-08-21T08:39:33;13.27;;;9.20;;
4389;SDS011;2209;48.982;8.406;2023-08-21T08:41:56;9.87;;;8.97;;
4389;SDS011;2209;48.982;8.406;2023-08-21T08:44:20;10.17;;;8.80;;
4389;SDS011;2209;48.982;8.406;2023-08-21T08:46:45;15.27;;;8.40;;
4389;SDS011;2209;48.982;8.406;2023-08-21T08:49:07;9.73;;;8.83;;
4389;SDS011;2209;48.982;8.406;2023-08-21T08:51:29;8.87;;;7.97;;
4389;SDS011;2209;48.982;8.406;2023-08-21T08:53:54;11.70;;;10.20;;
4389;SDS011;2209;48.982;8.406;2023-08-21T08:56:19;11.40;;;10.33;;
4389;SDS011;2209;48.982;8.406;2023-08-21T08:58:41;11.93;;;10.20;;
4389;SDS011;2209;48.982;8.406;2023-08-21T09:01:03;8.93;;;8.20;;
4389;SDS011;2209;48.982;8.406;2023-08-21T09:03:25;10.30;;;9.33;;
4389;SDS011;2209;48.982;8.406;2023-08-21T09:05:49;10.43;;;9.03;;
4389;SDS011;2209;48.982;8.406;2023-08-21T09:08:11;9.80;;;8.90;;
4389;SDS011;2209;48.982;8.406;2023-08-21T09:10:35;9.73;;;8.03;;
4389;SDS011;2209;48.982;8.406;2023-08-21T09:12:57;9.90;;;9.00;;
4389;SDS011;2209;48.982;8.406;2023-08-21T09:15:23;11.00;;;9.13;;
4389;SDS011;2209;48.982;8.406;2023-08-21T09:17:52;9.67;;;8.83;;
4389;SDS011;2209;48.982;8.406;2023-08-21T09:20:15;11.17;;;8.63;;
4389;SDS011;2209;48.982;8.406;2023-08-21T09:22:38;10.00;;;9.03;;
4389;SDS011;2209;48.982;8.406;2023-08-21T09:25:00;9.60;;;8.70;;
4389;SDS011;2209;48.982;8.406;2023-08-21T09:27:28;10.73;;;9.73;;
4389;SDS011;2209;48.982;8.406;2023-08-21T09:29:50;10.60;;;9.63;;
4389;SDS011;2209;48.982;8.406;2023-08-21T09:32:12;10.23;;;9.10;;
4389;SDS011;2209;48.982;8.406;2023-08-21T09:34:36;11.70;;;7.70;;
4389;SDS011;2209;48.982;8.406;2023-08-21T09:36:58;10.00;;;8.90;;
4389;SDS011;2209;48.982;8.406;2023-08-21T09:39:20;11.43;;;9.20;;
4389;SDS011;2209;48.982;8.406;2023-08-21T09:41:45;9.93;;;8.97;;
4389;SDS011;2209;48.982;8.406;2023-08-21T09:44:18;8.83;;;7.83;;
4389;SDS011;2209;48.982;8.406;2023-08-21T09:46:40;10.70;;;8.90;;
4389;SDS011;2209;48.982;8.406;2023-08-21T09:49:02;10.30;;;8.20;;
4389;SDS011;2209;48.982;8.406;2023-08-21T09:51:25;9.03;;;8.13;;
4389;SDS011;2209;48.982;8.406;2023-08-21T09:53:48;11.43;;;8.87;;
4389;SDS011;2209;48.982;8.406;2023-08-21T09:56:11;10.80;;;9.23;;
4389;SDS011;2209;48.982;8.406;2023-08-21T09:58:34;9.17;;;8.40;;
4389;SDS011;2209;48.982;8.406;2023-08-21T10:00:59;10.27;;;8.50;;
4389;SDS011;2209;48.982;8.406;2023-08-21T10:03:23;12.63;;;9.03;;
4389;SDS011;2209;48.982;8.406;2023-08-21T10:05:46;9.73;;;8.70;;
4389;SDS011;2209;48.982;8.406;2023-08-21T10:08:09;10.07;;;9.17;;
4389;SDS011;2209;48.982;8.406;2023-08-21T10:10:33;8.50;;;7.70;;
4389;SDS011;2209;48.982;8.406;2023-08-21T10:12:57;8.97;;;8.13;;
4389;SDS011;2209;48.982;8.406;2023-08-21T10:15:20;9.17;;;8.27;;
4389;SDS011;2209;48.982;8.406;2023-08-21T10:17:43;9.80;;;8.80;;
4389;SDS011;2209;48.982;8.406;2023-08-21T10:20:06;11.73;;;10.07;;
4389;SDS011;2209;48.982;8.406;2023-08-21T10:22:37;12.43;;;8.20;;
4389;SDS011;2209;48.982;8.406;2023-08-21T10:25:01;8.90;;;8.10;;
4389;SDS011;2209;48.982;8.406;2023-08-21T10:27:28;9.20;;;8.30;;
4389;SDS011;2209;48.982;8.406;2023-08-21T10:29:56;9.07;;;8.17;;
4389;SDS011;2209;48.982;8.406;2023-08-21T10:32:18;8.73;;;7.93;;
4389;SDS011;2209;48.982;8.406;2023-08-21T10:34:45;7.43;;;6.70;;
4389;SDS011;2209;48.982;8.406;2023-08-21T10:37:13;14.67;;;8.30;;
4389;SDS011;2209;48.982;8.406;2023-08-21T10:39:35;8.60;;;7.70;;
4389;SDS011;2209;48.982;8.406;2023-08-21T10:42:00;9.47;;;7.40;;
4389;SDS011;2209;48.982;8.406;2023-08-21T10:47:16;8.70;;;8.00;;
4389;SDS011;2209;48.982;8.406;2023-08-21T10:49:47;7.70;;;6.80;;
4389;SDS011;2209;48.982;8.406;2023-08-21T10:52:11;8.10;;;7.13;;
4389;SDS011;2209;48.982;8.406;2023-08-21T10:54:42;7.07;;;6.47;;
4389;SDS011;2209;48.982;8.406;2023-08-21T10:57:05;10.93;;;7.67;;
4389;SDS011;2209;48.982;8.406;2023-08-21T10:59:29;7.23;;;6.53;;
4389;SDS011;2209;48.982;8.406;2023-08-21T11:01:51;7.10;;;6.40;;
4389;SDS011;2209;48.982;8.406;2023-08-21T11:04:13;6.37;;;5.87;;
4389;SDS011;2209;48.982;8.406;2023-08-21T11:06:37;7.10;;;6.50;;
4389;SDS011;2209;48.982;8.406;2023-08-21T11:08:59;9.30;;;6.20;;
4389;SDS011;2209;48.982;8.406;2023-08-21T11:11:21;7.00;;;6.40;;
4389;SDS011;2209;48.982;8.406;2023-08-21T11:13:51;7.33;;;6.63;;
4389;SDS011;2209;48.982;8.406;2023-08-21T11:16:14;7.60;;;6.93;;
4389;SDS011;2209;48.982;8.406;2023-08-21T11:18:36;7.90;;;6.53;;
4389;SDS011;2209;48.982;8.406;2023-08-21T11:21:03;6.77;;;6.07;;
4389;SDS011;2209;48.982;8.406;2023-08-21T11:23:31;5.40;;;5.00;;
4389;SDS011;2209;48.982;8.406;2023-08-21T11:25:54;7.03;;;5.87;;
4389;SDS011;2209;48.982;8.406;2023-08-21T11:28:16;6.20;;;5.47;;
4389;SDS011;2209;48.982;8.406;2023-08-21T11:30:38;6.20;;;5.70;;
4389;SDS011;2209;48.982;8.406;2023-08-21T11:33:06;7.40;;;5.40;;
4389;SDS011;2209;48.982;8.406;2023-08-21T11:35:29;6.30;;;5.77;;
4389;SDS011;2209;48.982;8.406;2023-08-21T11:37:52;8.40;;;5.93;;
4389;SDS011;2209;48.982;8.406;2023-08-21T11:40:15;6.70;;;6.10;;
4389;SDS011;2209;48.982;8.406;2023-08-21T11:42:37;10.37;;;7.30;;
4389;SDS011;2209;48.982;8.406;2023-08-21T11:45:00;7.00;;;6.40;;
4389;SDS011;2209;48.982;8.406;2023-08-21T11:47:23;8.30;;;6.50;;
4389;SDS011;2209;48.982;8.406;2023-08-21T11:49:45;7.70;;;6.80;;
4389;SDS011;2209;48.982;8.406;2023-08-21T11:52:09;7.47;;;6.77;;
4389;SDS011;2209;48.982;8.406;2023-08-21T11:54:32;8.50;;;7.40;;
4389;SDS011;2209;48.982;8.406;2023-08-21T11:56:57;7.70;;;7.00;;
4389;SDS011;2209;48.982;8.406;2023-08-21T11:59:22;10.00;;;6.87;;
4389;SDS011;2209;48.982;8.406;2023-08-21T12:01:44;8.27;;;7.47;;
4389;SDS011;2209;48.982;8.406;2023-08-21T12:04:14;6.57;;;5.97;;
4389;SDS011;2209;48.982;8.406;2023-08-21T12:06:42;7.33;;;6.73;;
4389;SDS011;2209;48.982;8.406;2023-08-21T12:09:05;6.80;;;6.23;;
4389;SDS011;2209;48.982;8.406;2023-08-21T12:11:27;8.37;;;7.30;;
4389;SDS011;2209;48.982;8.406;2023-08-21T12:13:51;8.37;;;7.47;;
4389;SDS011;2209;48.982;8.406;2023-08-21T12:16:13;7.80;;;6.73;;
4389;SDS011;2209;48.982;8.406;2023-08-21T12:18:35;23.57;;;8.30;;
4389;SDS011;2209;48.982;8.406;2023-08-21T12:20:57;7.73;;;6.90;;
4389;SDS011;2209;48.982;8.406;2023-08-21T12:23:19;7.30;;;6.60;;
4389;SDS011;2209;48.982;8.406;2023-08-21T12:25:41;8.70;;;7.90;;
4389;SDS011;2209;48.982;8.406;2023-08-21T12:28:04;7.70;;;6.90;;
4389;SDS011;2209;48.982;8.406;2023-08-21T12:30:28;10.10;;;7.87;;
4389;SDS011;2209;48.982;8.406;2023-08-21T12:32:50;9.50;;;7.60;;
4389;SDS011;2209;48.982;8.406;2023-08-21T12:35:12;8.43;;;7.63;;
4389;SDS011;2209;48.982;8.406;2023-08-21T12:37:34;9.10;;;8.20;;
4389;SDS011;2209;48.982;8.406;2023-08-21T12:39:57;9.37;;;8.40;;
4389;SDS011;2209;48.982;8.406;2023-08-21T12:42:19;8.07;;;7.27;;
4389;SDS011;2209;48.982;8.406;2023-08-21T12:44:41;8.80;;;7.90;;
4389;SDS011;2209;48.982;8.406;2023-08-21T12:47:05;8.33;;;7.57;;
4389;SDS011;2209;48.982;8.406;2023-08-21T12:49:27;10.70;;;7.70;;
4389;SDS011;2209;48.982;8.406;2023-08-21T12:51:49;8.07;;;7.40;;
4389;SDS011;2209;48.982;8.406;2023-08-21T12:54:11;9.00;;;7.63;;
4389;SDS011;2209;48.982;8.406;2023-08-21T12:56:33;8.37;;;7.50;;
4389;SDS011;2209;48.982;8.406;2023-08-21T12:58:55;8.80;;;8.00;;
4389;SDS011;2209;48.982;8.406;2023-08-21T13:01:17;9.37;;;8.50;;
4389;SDS011;2209;48.982;8.406;2023-08-21T13:03:44;8.27;;;7.53;;
4389;SDS011;2209;48.982;8.406;2023-08-21T13:06:07;9.30;;;7.67;;
4389;SDS011;2209;48.982;8.406;2023-08-21T13:08:29;8.33;;;7.67;;
4389;SDS011;2209;48.982;8.406;2023-08-21T13:10:51;7.80;;;7.10;;
4389;SDS011;2209;48.982;8.406;2023-08-21T13:13:13;8.40;;;7.20;;
4389;SDS011;2209;48.982;8.406;2023-08-21T13:15:35;7.57;;;6.87;;
4389;SDS011;2209;48.982;8.406;2023-08-21T13:17:57;7.50;;;6.60;;
4389;SDS011;2209;48.982;8.406;2023-08-21T13:20:21;7.30;;;5.80;;
4389;SDS011;2209;48.982;8.406;2023-08-21T13:22:46;7.47;;;6.87;;
4389;SDS011;2209;48.982;8.406;2023-08-21T13:25:09;6.33;;;5.80;;
4389;SDS011;2209;48.982;8.406;2023-08-21T13:27:31;8.20;;;7.27;;
4389;SDS011;2209;48.982;8.406;2023-08-21T13:29:54;12.77;;;6.80;;
4389;SDS011;2209;48.982;8.406;2023-08-21T13:32:16;10.57;;;6.90;;
4389;SDS011;2209;48.982;8.406;2023-08-21T13:34:38;8.33;;;7.43;;
4389;SDS011;2209;48.982;8.406;2023-08-21T13:37:02;6.70;;;6.10;;
4389;SDS011;2209;48.982;8.406;2023-08-21T13:39:25;7.60;;;6.80;;
4389;SDS011;2209;48.982;8.406;2023-08-21T13:41:47;7.13;;;6.67;;
4389;SDS011;2209;48.982;8.406;2023-08-21T13:44:10;7.80;;;7.00;;
4389;SDS011;2209;48.982;8.406;2023-08-21T13:46:32;8.80;;;6.90;;
4389;SDS011;2209;48.982;8.406;2023-08-21T13:48:55;6.70;;;6.10;;
4389;SDS011;2209;48.982;8.406;2023-08-21T13:51:17;6.60;;;6.00;;
4389;SDS011;2209;48.982;8.406;2023-08-21T13:53:40;7.20;;;6.40;;
4389;SDS011;2209;48.982;8.406;2023-08-21T13:56:02;6.40;;;5.90;;
4389;SDS011;2209;48.982;8.406;2023-08-21T13:58:25;6.63;;;6.07;;
4389;SDS011;2209;48.982;8.406;2023-08-21T14:00:47;6.10;;;5.70;;
4389;SDS011;2209;48.982;8.406;2023-08-21T14:03:09;7.47;;;6.03;;
4389;SDS011;2209;48.982;8.406;2023-08-21T14:05:31;6.40;;;5.60;;
4389;SDS011;2209;48.982;8.406;2023-08-21T14:07:54;5.30;;;4.87;;
4389;SDS011;2209;48.982;8.406;2023-08-21T14:10:17;6.10;;;5.33;;
4389;SDS011;2209;48.982;8.406;2023-08-21T14:12:39;5.90;;;5.40;;
4389;SDS011;2209;48.982;8.406;2023-08-21T14:15:02;5.70;;;5.10;;
4389;SDS011;2209;48.982;8.406;2023-08-21T14:17:24;5.07;;;4.60;;
4389;SDS011;2209;48.982;8.406;2023-08-21T14:19:49;6.00;;;5.50;;
4389;SDS011;2209;48.982;8.406;2023-08-21T14:22:12;6.40;;;5.80;;
4389;SDS011;2209;48.982;8.406;2023-08-21T14:24:37;6.00;;;5.40;;
4389;SDS011;2209;48.982;8.406;2023-08-21T14:27:00;5.77;;;5.27;;
4389;SDS011;2209;48.982;8.406;2023-08-21T14:29:23;4.70;;;4.30;;
4389;SDS011;2209;48.982;8.406;2023-08-21T14:31:45;4.60;;;4.30;;
4389;SDS011;2209;48.982;8.406;2023-08-21T14:34:08;5.83;;;4.07;;
4389;SDS011;2209;48.982;8.406;2023-08-21T14:36:30;4.30;;;3.90;;
4389;SDS011;2209;48.982;8.406;2023-08-21T14:38:52;4.80;;;4.37;;
4389;SDS011;2209;48.982;8.406;2023-08-21T14:41:15;5.33;;;3.90;;
4389;SDS011;2209;48.982;8.406;2023-08-21T14:43:38;6.37;;;5.17;;
4389;SDS011;2209;48.982;8.406;2023-08-21T14:46:00;4.73;;;4.17;;
4389;SDS011;2209;48.982;8.406;2023-08-21T14:48:23;4.47;;;4.17;;